sensor_id;sensor_type;location;lat;lon;timestamp;pressure;altitude;pressure_sealevel;temperature;humidity
69219;BME280;56232;53.384;-2.732;2023-11-21T00:00:36;101435.49;;;11.46;41.38
69219;BME280;56232;53.384;-2.732;2023-11-21T00:03:01;101433.09;;;11.30;41.50
69219;BME280;56232;53.384;-2.732;2023-11-21T00:05:27;101436.23;;;11.28;41.56
69219;BME280;56232;53.384;-2.732;2023-11-21T00:07:53;101436.80;;;10.81;41.65
69219;BME280;56232;53.384;-2.732;2023-11-21T00:10:18;101439.15;;;11.21;41.21
69219;BME280;56232;53.384;-2.732;2023-11-21T00:12:44;101444.52;;;10.67;41.33
69219;BME280;56232;53.384;-2.732;2023-11-21T00:15:10;101445.48;;;10.39;41.10
69219;BME280;56232;53.384;-2.732;2023-11-21T00:17:36;101447.73;;;11.15;41.65
69219;BME280;56232;53.384;-2.732;2023-11-21T00:20:01;101453.81;;;10.32;41.90
69219;BME280;56232;53.384;-2.732;2023-11-21T00:22:26;101464.09;;;10.73;42.19
69219;BME280;56232;53.384;-2.732;2023-11-21T00:24:52;101473.88;;;10.60;42.28
69219;BME280;56232;53.384;-2.732;2023-11-21T00:27:18;101477.05;;;10.56;42.27
69219;BME280;56232;53.384;-2.732;2023-11-21T00:29:43;101478.74;;;10.34;42.32
69219;BME280;56232;53.384;-2.732;2023-11-21T00:32:09;101477.35;;;10.45;42.33
69219;BME280;56232;53.384;-2.732;2023-11-21T00:34:36;101482.75;;;10.50;42.15
69219;BME280;56232;53.384;-2.732;2023-11-21T00:37:01;101486.90;;;9.95;42.21
69219;BME280;56232;53.384;-2.732;2023-11-21T00:39:26;101493.65;;;10.43;42.36
69219;BME280;56232;53.384;-2.732;2023-11-21T00:41:52;101499.67;;;10.56;42.14
69219;BME280;56232;53.384;-2.732;2023-11-21T00:44:18;101507.80;;;10.04;41.93
69219;BME280;56232;53.384;-2.732;2023-11-21T00:46:43;101502.86;;;11.13;42.00
69219;BME280;56232;53.384;-2.732;2023-11-21T00:49:09;101502.31;;;10.60;41.84
69219;BME280;56232;53.384;-2.732;2023-11-21T00:51:36;101512.54;;;10.45;41.87
69219;BME280;56232;53.384;-2.732;2023-11-21T00:54:00;101516.46;;;10.32;42.05
69219;BME280;56232;53.384;-2.732;2023-11-21T00:56:26;101521.51;;;10.22;42.29
69219;BME280;56232;53.384;-2.732;2023-11-21T00:58:52;101530.69;;;10.22;41.90
69219;BME280;56232;53.384;-2.732;2023-11-21T01:01:18;101538.54;;;10.17;42.28
69219;BME280;56232;53.384;-2.732;2023-11-21T01:03:43;101551.20;;;10.25;42.16
69219;BME280;56232;53.384;-2.732;2023-11-21T01:06:09;101567.57;;;10.42;41.94
69219;BME280;56232;53.384;-2.732;2023-11-21T01:08:35;101569.04;;;10.54;41.78
69219;BME280;56232;53.384;-2.732;2023-11-21T01:11:00;101574.59;;;10.53;41.71
69219;BME280;56232;53.384;-2.732;2023-11-21T01:13:26;101572.53;;;10.79;41.82
69219;BME280;56232;53.384;-2.732;2023-11-21T01:15:51;101574.76;;;10.48;41.47
69219;BME280;56232;53.384;-2.732;2023-11-21T01:18:17;101570.48;;;10.63;41.33
69219;BME280;56232;53.384;-2.732;2023-11-21T01:20:43;101571.02;;;11.39;41.30
69219;BME280;56232;53.384;-2.732;2023-11-21T01:23:08;101573.04;;;11.59;41.01
69219;BME280;56232;53.384;-2.732;2023-11-21T01:25:35;101566.47;;;11.53;40.83
69219;BME280;56232;53.384;-2.732;2023-11-21T01:28:00;101564.16;;;10.39;40.71
69219;BME280;56232;53.384;-2.732;2023-11-21T01:30:25;101571.53;;;10.63;40.70
69219;BME280;56232;53.384;-2.732;2023-11-21T01:32:51;101575.33;;;11.13;40.95
69219;BME280;56232;53.384;-2.732;2023-11-21T01:35:17;101577.55;;;10.51;41.13
69219;BME280;56232;53.384;-2.732;2023-11-21T01:37:42;101577.32;;;10.61;40.93
69219;BME280;56232;53.384;-2.732;2023-11-21T01:40:09;101578.58;;;10.52;41.09
69219;BME280;56232;53.384;-2.732;2023-11-21T01:42:34;101581.92;;;10.69;40.93
69219;BME280;56232;53.384;-2.732;2023-11-21T01:44:59;101587.23;;;10.75;40.66
69219;BME280;56232;53.384;-2.732;2023-11-21T01:47:25;101593.68;;;10.85;40.60
69219;BME280;56232;53.384;-2.732;2023-11-21T01:49:51;101591.55;;;11.50;40.61
69219;BME280;56232;53.384;-2.732;2023-11-21T01:52:17;101597.35;;;10.99;40.47
69219;BME280;56232;53.384;-2.732;2023-11-21T01:54:42;101598.06;;;11.17;40.42
69219;BME280;56232;53.384;-2.732;2023-11-21T01:57:08;101598.60;;;11.26;39.89
69219;BME280;56232;53.384;-2.732;2023-11-21T01:59:35;101603.58;;;11.07;40.22
69219;BME280;56232;53.384;-2.732;2023-11-21T02:01:59;101608.42;;;10.93;40.00
69219;BME280;56232;53.384;-2.732;2023-11-21T02:04:25;101611.75;;;11.52;40.30
69219;BME280;56232;53.384;-2.732;2023-11-21T02:06:51;101611.12;;;10.94;39.87
69219;BME280;56232;53.384;-2.732;2023-11-21T02:09:25;101613.88;;;11.27;40.28
69219;BME280;56232;53.384;-2.732;2023-11-21T02:11:42;101607.56;;;10.10;40.51
69219;BME280;56232;53.384;-2.732;2023-11-21T02:14:07;101609.73;;;11.14;40.36
69219;BME280;56232;53.384;-2.732;2023-11-21T02:16:33;101611.15;;;11.12;40.51
69219;BME280;56232;53.384;-2.732;2023-11-21T02:18:59;101622.77;;;10.86;40.59
69219;BME280;56232;53.384;-2.732;2023-11-21T02:21:25;101624.07;;;10.87;40.81
69219;BME280;56232;53.384;-2.732;2023-11-21T02:23:50;101626.65;;;11.38;40.74
69219;BME280;56232;53.384;-2.732;2023-11-21T02:26:16;101632.03;;;10.89;40.76
69219;BME280;56232;53.384;-2.732;2023-11-21T02:28:41;101641.07;;;10.48;40.57
69219;BME280;56232;53.384;-2.732;2023-11-21T02:31:07;101643.43;;;10.90;40.44
69219;BME280;56232;53.384;-2.732;2023-11-21T02:33:33;101648.15;;;10.23;40.66
69219;BME280;56232;53.384;-2.732;2023-11-21T02:35:58;101654.40;;;10.27;40.75
69219;BME280;56232;53.384;-2.732;2023-11-21T02:38:24;101656.03;;;10.36;40.55
69219;BME280;56232;53.384;-2.732;2023-11-21T02:40:50;101657.27;;;10.97;40.60
69219;BME280;56232;53.384;-2.732;2023-11-21T02:43:15;101653.98;;;10.92;40.35
69219;BME280;56232;53.384;-2.732;2023-11-21T02:45:41;101660.77;;;10.23;40.45
69219;BME280;56232;53.384;-2.732;2023-11-21T02:48:07;101663.16;;;10.52;40.35
69219;BME280;56232;53.384;-2.732;2023-11-21T02:50:32;101665.86;;;10.35;40.43
69219;BME280;56232;53.384;-2.732;2023-11-21T02:52:58;101661.34;;;10.28;40.46
69219;BME280;56232;53.384;-2.732;2023-11-21T02:55:24;101664.51;;;10.62;40.64
69219;BME280;56232;53.384;-2.732;2023-11-21T02:57:49;101667.71;;;10.54;40.53
69219;BME280;56232;53.384;-2.732;2023-11-21T03:00:16;101664.97;;;9.91;40.54
69219;BME280;56232;53.384;-2.732;2023-11-21T03:02:41;101667.42;;;9.82;40.86
69219;BME280;56232;53.384;-2.732;2023-11-21T03:05:07;101677.87;;;9.58;40.97
69219;BME280;56232;53.384;-2.732;2023-11-21T03:07:32;101682.08;;;9.49;41.21
69219;BME280;56232;53.384;-2.732;2023-11-21T03:09:58;101686.32;;;9.92;40.97
69219;BME280;56232;53.384;-2.732;2023-11-21T03:12:23;101689.78;;;9.41;41.15
69219;BME280;56232;53.384;-2.732;2023-11-21T03:14:49;101697.36;;;10.74;41.09
69219;BME280;56232;53.384;-2.732;2023-11-21T03:17:15;101697.00;;;10.81;40.76
69219;BME280;56232;53.384;-2.732;2023-11-21T03:19:41;101699.21;;;10.83;40.78
69219;BME280;56232;53.384;-2.732;2023-11-21T03:22:06;101701.14;;;10.67;40.75
69219;BME280;56232;53.384;-2.732;2023-11-21T03:24:32;101711.10;;;9.59;40.89
69219;BME280;56232;53.384;-2.732;2023-11-21T03:26:57;101722.58;;;9.72;40.85
69219;BME280;56232;53.384;-2.732;2023-11-21T03:29:23;101725.46;;;9.60;40.77
69219;BME280;56232;53.384;-2.732;2023-11-21T03:31:49;101726.98;;;10.67;41.01
69219;BME280;56232;53.384;-2.732;2023-11-21T03:34:23;101731.07;;;10.05;40.89
69219;BME280;56232;53.384;-2.732;2023-11-21T03:36:40;101736.34;;;10.64;41.03
69219;BME280;56232;53.384;-2.732;2023-11-21T03:39:06;101727.52;;;10.63;40.71
69219;BME280;56232;53.384;-2.732;2023-11-21T03:41:32;101735.49;;;9.85;40.97
69219;BME280;56232;53.384;-2.732;2023-11-21T03:43:57;101730.33;;;9.96;40.75
69219;BME280;56232;53.384;-2.732;2023-11-21T03:46:23;101733.31;;;9.92;40.99
69219;BME280;56232;53.384;-2.732;2023-11-21T03:51:14;101738.54;;;10.62;41.07
69219;BME280;56232;53.384;-2.732;2023-11-21T03:53:40;101742.14;;;10.56;40.82
69219;BME280;56232;53.384;-2.732;2023-11-21T03:56:06;101747.51;;;10.44;41.14
69219;BME280;56232;53.384;-2.732;2023-11-21T03:58:31;101751.75;;;10.60;41.12
69219;BME280;56232;53.384;-2.732;2023-11-21T04:00:57;101755.95;;;10.57;40.88
69219;BME280;56232;53.384;-2.732;2023-11-21T04:03:23;101761.54;;;9.53;40.96
69219;BME280;56232;53.384;-2.732;2023-11-21T04:05:48;101769.59;;;9.68;41.04
69219;BME280;56232;53.384;-2.732;2023-11-21T04:08:14;101778.33;;;10.94;40.73
69219;BME280;56232;53.384;-2.732;2023-11-21T04:10:40;101783.16;;;10.22;40.86
69219;BME280;56232;53.384;-2.732;2023-11-21T04:13:05;101783.18;;;9.79;40.81
69219;BME280;56232;53.384;-2.732;2023-11-21T04:15:31;101789.14;;;10.72;40.99
69219;BME280;56232;53.384;-2.732;2023-11-21T04:17:57;101794.98;;;10.64;41.05
69219;BME280;56232;53.384;-2.732;2023-11-21T04:20:22;101803.06;;;9.81;40.68
69219;BME280;56232;53.384;-2.732;2023-11-21T04:22:48;101804.81;;;10.06;40.60
69219;BME280;56232;53.384;-2.732;2023-11-21T04:25:15;101810.21;;;10.23;40.06
69219;BME280;56232;53.384;-2.732;2023-11-21T04:27:39;101812.92;;;10.32;40.36
69219;BME280;56232;53.384;-2.732;2023-11-21T04:30:06;101809.90;;;10.30;40.04
69219;BME280;56232;53.384;-2.732;2023-11-21T04:32:31;101821.66;;;10.92;39.95
69219;BME280;56232;53.384;-2.732;2023-11-21T04:34:56;101826.53;;;10.21;40.04
69219;BME280;56232;53.384;-2.732;2023-11-21T04:37:22;101825.16;;;10.68;40.48
69219;BME280;56232;53.384;-2.732;2023-11-21T04:39:48;101828.69;;;10.18;40.44
69219;BME280;56232;53.384;-2.732;2023-11-21T04:42:13;101825.02;;;10.76;40.37
69219;BME280;56232;53.384;-2.732;2023-11-21T04:44:39;101827.63;;;10.10;40.39
69219;BME280;56232;53.384;-2.732;2023-11-21T04:47:05;101832.97;;;9.98;40.76
69219;BME280;56232;53.384;-2.732;2023-11-21T04:49:30;101831.64;;;9.93;40.63
69219;BME280;56232;53.384;-2.732;2023-11-21T04:51:56;101834.71;;;9.88;40.65
69219;BME280;56232;53.384;-2.732;2023-11-21T04:54:22;101844.97;;;10.30;40.45
69219;BME280;56232;53.384;-2.732;2023-11-21T04:56:47;101842.61;;;10.79;41.01
69219;BME280;56232;53.384;-2.732;2023-11-21T04:59:13;101850.41;;;10.04;41.03
69219;BME280;56232;53.384;-2.732;2023-11-21T05:01:39;101855.83;;;9.56;40.78
69219;BME280;56232;53.384;-2.732;2023-11-21T05:04:04;101851.91;;;10.01;40.95
69219;BME280;56232;53.384;-2.732;2023-11-21T05:06:30;101857.35;;;10.65;41.01
69219;BME280;56232;53.384;-2.732;2023-11-21T05:08:56;101854.48;;;9.61;40.87
69219;BME280;56232;53.384;-2.732;2023-11-21T05:11:25;101854.36;;;10.71;40.83
69219;BME280;56232;53.384;-2.732;2023-11-21T05:13:48;101854.96;;;10.58;41.26
69219;BME280;56232;53.384;-2.732;2023-11-21T05:16:13;101860.77;;;9.53;41.10
69219;BME280;56232;53.384;-2.732;2023-11-21T05:18:38;101856.91;;;10.71;40.92
69219;BME280;56232;53.384;-2.732;2023-11-21T05:21:04;101862.61;;;9.59;40.80
69219;BME280;56232;53.384;-2.732;2023-11-21T05:23:30;101856.41;;;10.16;41.04
69219;BME280;56232;53.384;-2.732;2023-11-21T05:25:55;101858.63;;;9.84;40.88
69219;BME280;56232;53.384;-2.732;2023-11-21T05:28:21;101864.70;;;9.85;40.92
69219;BME280;56232;53.384;-2.732;2023-11-21T05:30:46;101879.72;;;11.00;40.63
69219;BME280;56232;53.384;-2.732;2023-11-21T05:33:12;101884.61;;;9.85;40.69
69219;BME280;56232;53.384;-2.732;2023-11-21T05:35:38;101890.19;;;9.92;40.76
69219;BME280;56232;53.384;-2.732;2023-11-21T05:38:04;101899.65;;;10.15;40.60
69219;BME280;56232;53.384;-2.732;2023-11-21T05:40:29;101906.47;;;10.01;40.66
69219;BME280;56232;53.384;-2.732;2023-11-21T05:42:55;101915.66;;;9.89;40.51
69219;BME280;56232;53.384;-2.732;2023-11-21T05:45:21;101922.88;;;9.80;41.00
69219;BME280;56232;53.384;-2.732;2023-11-21T05:47:46;101929.83;;;9.84;40.90
69219;BME280;56232;53.384;-2.732;2023-11-21T05:50:13;101937.09;;;9.85;40.75
69219;BME280;56232;53.384;-2.732;2023-11-21T05:52:38;101938.91;;;9.86;40.57
69219;BME280;56232;53.384;-2.732;2023-11-21T05:55:03;101937.40;;;9.86;40.91
69219;BME280;56232;53.384;-2.732;2023-11-21T05:57:29;101940.80;;;10.34;40.72
69219;BME280;56232;53.384;-2.732;2023-11-21T05:59:54;101954.40;;;10.05;40.77
69219;BME280;56232;53.384;-2.732;2023-11-21T06:02:20;101958.20;;;10.52;41.32
69219;BME280;56232;53.384;-2.732;2023-11-21T06:04:46;101963.09;;;10.49;41.16
69219;BME280;56232;53.384;-2.732;2023-11-21T06:07:11;101966.51;;;9.87;41.48
69219;BME280;56232;53.384;-2.732;2023-11-21T06:09:37;101970.98;;;10.41;41.44
69219;BME280;56232;53.384;-2.732;2023-11-21T06:12:03;101980.52;;;10.35;41.53
69219;BME280;56232;53.384;-2.732;2023-11-21T06:14:28;101980.04;;;10.47;41.69
69219;BME280;56232;53.384;-2.732;2023-11-21T06:16:54;101980.34;;;10.61;41.34
69219;BME280;56232;53.384;-2.732;2023-11-21T06:19:20;101981.61;;;9.95;41.51
69219;BME280;56232;53.384;-2.732;2023-11-21T06:21:46;101977.99;;;9.60;41.52
69219;BME280;56232;53.384;-2.732;2023-11-21T06:24:16;101982.39;;;10.24;41.25
69219;BME280;56232;53.384;-2.732;2023-11-21T06:26:37;101981.62;;;9.85;41.12
69219;BME280;56232;53.384;-2.732;2023-11-21T06:29:02;101983.88;;;10.45;40.66
69219;BME280;56232;53.384;-2.732;2023-11-21T06:31:29;101988.68;;;10.89;40.82
69219;BME280;56232;53.384;-2.732;2023-11-21T06:33:53;101996.50;;;9.61;41.17
69219;BME280;56232;53.384;-2.732;2023-11-21T06:36:19;102003.60;;;9.55;41.27
69219;BME280;56232;53.384;-2.732;2023-11-21T06:38:45;102011.30;;;10.09;41.19
69219;BME280;56232;53.384;-2.732;2023-11-21T06:41:10;102016.59;;;10.82;41.07
69219;BME280;56232;53.384;-2.732;2023-11-21T06:43:37;102015.71;;;10.92;40.94
69219;BME280;56232;53.384;-2.732;2023-11-21T06:46:01;102018.78;;;10.25;41.05
69219;BME280;56232;53.384;-2.732;2023-11-21T06:48:27;102027.47;;;10.88;41.12
69219;BME280;56232;53.384;-2.732;2023-11-21T06:50:53;102023.60;;;10.84;41.10
69219;BME280;56232;53.384;-2.732;2023-11-21T06:53:19;102024.99;;;10.16;41.05
69219;BME280;56232;53.384;-2.732;2023-11-21T06:55:44;102027.28;;;9.73;41.04
69219;BME280;56232;53.384;-2.732;2023-11-21T06:58:10;102032.13;;;11.00;40.89
69219;BME280;56232;53.384;-2.732;2023-11-21T07:00:37;102031.99;;;11.13;40.73
69219;BME280;56232;53.384;-2.732;2023-11-21T07:03:01;102035.52;;;9.99;40.57
69219;BME280;56232;53.384;-2.732;2023-11-21T07:05:27;102038.18;;;10.97;40.77
69219;BME280;56232;53.384;-2.732;2023-11-21T07:07:53;102046.20;;;10.45;40.94
69219;BME280;56232;53.384;-2.732;2023-11-21T07:10:18;102053.62;;;9.98;40.73
69219;BME280;56232;53.384;-2.732;2023-11-21T07:12:44;102059.12;;;10.07;40.49
69219;BME280;56232;53.384;-2.732;2023-11-21T07:15:10;102057.21;;;10.08;40.53
69219;BME280;56232;53.384;-2.732;2023-11-21T07:17:36;102062.52;;;11.25;40.60
69219;BME280;56232;53.384;-2.732;2023-11-21T07:20:01;102062.30;;;10.13;40.30
69219;BME280;56232;53.384;-2.732;2023-11-21T07:22:27;102064.25;;;10.11;40.55
69219;BME280;56232;53.384;-2.732;2023-11-21T07:24:52;102073.51;;;10.21;40.49
69219;BME280;56232;53.384;-2.732;2023-11-21T07:27:18;102085.42;;;10.27;40.50
69219;BME280;56232;53.384;-2.732;2023-11-21T07:29:44;102092.71;;;10.86;40.37
69219;BME280;56232;53.384;-2.732;2023-11-21T07:32:09;102097.08;;;10.44;40.24
69219;BME280;56232;53.384;-2.732;2023-11-21T07:34:36;102096.22;;;9.99;40.14
69219;BME280;56232;53.384;-2.732;2023-11-21T07:37:01;102100.56;;;10.75;39.79
69219;BME280;56232;53.384;-2.732;2023-11-21T07:39:26;102106.21;;;10.13;39.74
69219;BME280;56232;53.384;-2.732;2023-11-21T07:41:52;102111.64;;;10.73;39.74
69219;BME280;56232;53.384;-2.732;2023-11-21T07:44:18;102112.34;;;10.53;39.74
69219;BME280;56232;53.384;-2.732;2023-11-21T07:46:43;102123.16;;;10.30;40.06
69219;BME280;56232;53.384;-2.732;2023-11-21T07:49:09;102129.81;;;9.98;40.34
69219;BME280;56232;53.384;-2.732;2023-11-21T07:51:35;102137.54;;;9.80;40.61
69219;BME280;56232;53.384;-2.732;2023-11-21T07:54:00;102144.89;;;10.15;40.51
69219;BME280;56232;53.384;-2.732;2023-11-21T07:56:26;102156.87;;;9.51;40.86
69219;BME280;56232;53.384;-2.732;2023-11-21T07:58:52;102165.27;;;10.49;41.13
69219;BME280;56232;53.384;-2.732;2023-11-21T08:01:17;102173.76;;;9.44;41.14
69219;BME280;56232;53.384;-2.732;2023-11-21T08:03:43;102174.57;;;9.40;41.19
69219;BME280;56232;53.384;-2.732;2023-11-21T08:06:09;102178.67;;;10.53;41.17
69219;BME280;56232;53.384;-2.732;2023-11-21T08:08:35;102174.98;;;10.09;40.90
69219;BME280;56232;53.384;-2.732;2023-11-21T08:11:00;102169.97;;;10.67;40.74
69219;BME280;56232;53.384;-2.732;2023-11-21T08:13:27;102169.92;;;9.60;40.87
69219;BME280;56232;53.384;-2.732;2023-11-21T08:15:54;102169.18;;;9.57;40.98
69219;BME280;56232;53.384;-2.732;2023-11-21T08:18:17;102180.75;;;9.66;41.42
69219;BME280;56232;53.384;-2.732;2023-11-21T08:20:43;102185.07;;;10.07;41.61
69219;BME280;56232;53.384;-2.732;2023-11-21T08:23:08;102196.72;;;10.08;41.40
69219;BME280;56232;53.384;-2.732;2023-11-21T08:25:35;102202.12;;;9.99;41.56
69219;BME280;56232;53.384;-2.732;2023-11-21T08:28:00;102209.57;;;9.39;41.61
69219;BME280;56232;53.384;-2.732;2023-11-21T08:30:25;102210.60;;;9.99;41.58
69219;BME280;56232;53.384;-2.732;2023-11-21T08:32:51;102212.42;;;9.34;41.75
69219;BME280;56232;53.384;-2.732;2023-11-21T08:35:17;102214.78;;;10.04;41.64
69219;BME280;56232;53.384;-2.732;2023-11-21T08:37:43;102221.34;;;10.21;41.72
69219;BME280;56232;53.384;-2.732;2023-11-21T08:40:09;102217.66;;;10.21;41.69
69219;BME280;56232;53.384;-2.732;2023-11-21T08:42:34;102226.50;;;9.11;41.60
69219;BME280;56232;53.384;-2.732;2023-11-21T08:44:59;102235.18;;;10.37;41.53
69219;BME280;56232;53.384;-2.732;2023-11-21T08:47:25;102242.17;;;10.00;41.21
69219;BME280;56232;53.384;-2.732;2023-11-21T08:49:51;102251.67;;;10.41;41.03
69219;BME280;56232;53.384;-2.732;2023-11-21T08:52:16;102261.51;;;10.86;40.77
69219;BME280;56232;53.384;-2.732;2023-11-21T08:54:42;102262.61;;;11.23;40.31
69219;BME280;56232;53.384;-2.732;2023-11-21T08:57:08;102268.52;;;11.02;40.17
69219;BME280;56232;53.384;-2.732;2023-11-21T08:59:34;102268.02;;;10.77;40.14
69219;BME280;56232;53.384;-2.732;2023-11-21T09:01:59;102269.41;;;11.14;39.59
69219;BME280;56232;53.384;-2.732;2023-11-21T09:04:25;102265.32;;;10.66;39.36
69219;BME280;56232;53.384;-2.732;2023-11-21T09:06:51;102260.85;;;11.29;39.30
69219;BME280;56232;53.384;-2.732;2023-11-21T09:09:16;102263.03;;;11.32;39.02
69219;BME280;56232;53.384;-2.732;2023-11-21T09:11:42;102266.93;;;10.67;38.92
69219;BME280;56232;53.384;-2.732;2023-11-21T09:14:07;102270.51;;;11.22;38.89
69219;BME280;56232;53.384;-2.732;2023-11-21T09:16:33;102269.66;;;10.94;39.23
69219;BME280;56232;53.384;-2.732;2023-11-21T09:18:59;102272.13;;;10.84;39.47
69219;BME280;56232;53.384;-2.732;2023-11-21T09:21:24;102279.74;;;10.34;39.54
69219;BME280;56232;53.384;-2.732;2023-11-21T09:23:50;102287.56;;;10.43;39.47
69219;BME280;56232;53.384;-2.732;2023-11-21T09:26:16;102281.35;;;11.14;39.24
69219;BME280;56232;53.384;-2.732;2023-11-21T09:28:43;102271.33;;;11.75;38.93
69219;BME280;56232;53.384;-2.732;2023-11-21T09:31:07;102269.20;;;12.33;38.45
69219;BME280;56232;53.384;-2.732;2023-11-21T09:33:33;102270.95;;;12.76;38.03
69219;BME280;56232;53.384;-2.732;2023-11-21T09:35:58;102274.13;;;12.53;37.65
69219;BME280;56232;53.384;-2.732;2023-11-21T09:38:24;102272.94;;;12.49;37.64
69219;BME280;56232;53.384;-2.732;2023-11-21T09:40:50;102272.02;;;12.48;37.70
69219;BME280;56232;53.384;-2.732;2023-11-21T09:43:16;102288.42;;;12.87;37.79
69219;BME280;56232;53.384;-2.732;2023-11-21T09:45:45;102298.99;;;12.57;37.52
69219;BME280;56232;53.384;-2.732;2023-11-21T09:48:07;102298.23;;;12.65;37.60
69219;BME280;56232;53.384;-2.732;2023-11-21T09:50:33;102303.27;;;13.34;37.48
69219;BME280;56232;53.384;-2.732;2023-11-21T09:53:03;102313.99;;;12.57;37.28
69219;BME280;56232;53.384;-2.732;2023-11-21T09:55:26;102317.91;;;12.89;36.94
69219;BME280;56232;53.384;-2.732;2023-11-21T09:57:49;102311.14;;;12.91;36.75
69219;BME280;56232;53.384;-2.732;2023-11-21T10:00:15;102312.31;;;12.87;36.73
69219;BME280;56232;53.384;-2.732;2023-11-21T10:02:41;102311.30;;;12.43;37.01
69219;BME280;56232;53.384;-2.732;2023-11-21T10:05:07;102316.45;;;12.14;37.50
69219;BME280;56232;53.384;-2.732;2023-11-21T10:07:34;102314.64;;;12.43;37.82
69219;BME280;56232;53.384;-2.732;2023-11-21T10:09:59;102314.95;;;12.30;38.39
69219;BME280;56232;53.384;-2.732;2023-11-21T10:12:24;102323.19;;;11.57;38.62
69219;BME280;56232;53.384;-2.732;2023-11-21T10:14:49;102317.33;;;11.94;38.67
69219;BME280;56232;53.384;-2.732;2023-11-21T10:17:15;102327.82;;;11.75;38.76
69219;BME280;56232;53.384;-2.732;2023-11-21T10:19:40;102334.96;;;11.63;38.97
69219;BME280;56232;53.384;-2.732;2023-11-21T10:22:06;102339.55;;;11.80;38.52
69219;BME280;56232;53.384;-2.732;2023-11-21T10:24:31;102338.47;;;11.90;38.18
69219;BME280;56232;53.384;-2.732;2023-11-21T10:26:57;102334.86;;;12.14;38.37
69219;BME280;56232;53.384;-2.732;2023-11-21T10:29:23;102339.67;;;12.26;37.38
69219;BME280;56232;53.384;-2.732;2023-11-21T10:31:49;102345.61;;;12.45;37.82
69219;BME280;56232;53.384;-2.732;2023-11-21T10:34:15;102353.63;;;12.61;37.85
69219;BME280;56232;53.384;-2.732;2023-11-21T10:36:40;102360.90;;;12.31;37.41
69219;BME280;56232;53.384;-2.732;2023-11-21T10:39:05;102368.12;;;12.95;37.15
69219;BME280;56232;53.384;-2.732;2023-11-21T10:41:32;102370.11;;;12.08;37.14
69219;BME280;56232;53.384;-2.732;2023-11-21T10:43:57;102370.08;;;12.16;35.97
69219;BME280;56232;53.384;-2.732;2023-11-21T10:46:22;102373.06;;;12.90;36.74
69219;BME280;56232;53.384;-2.732;2023-11-21T10:48:52;102379.80;;;13.09;36.17
69219;BME280;56232;53.384;-2.732;2023-11-21T10:51:14;102379.92;;;12.92;35.49
69219;BME280;56232;53.384;-2.732;2023-11-21T10:53:39;102383.70;;;12.89;34.09
69219;BME280;56232;53.384;-2.732;2023-11-21T10:56:06;102377.69;;;13.50;36.06
69219;BME280;56232;53.384;-2.732;2023-11-21T10:58:31;102375.68;;;12.87;35.41
69219;BME280;56232;53.384;-2.732;2023-11-21T11:00:56;102369.56;;;12.28;36.37
69219;BME280;56232;53.384;-2.732;2023-11-21T11:03:21;102368.70;;;12.33;36.93
69219;BME280;56232;53.384;-2.732;2023-11-21T11:05:47;102368.06;;;13.56;36.57
69219;BME280;56232;53.384;-2.732;2023-11-21T11:08:13;102368.55;;;11.99;37.22
69219;BME280;56232;53.384;-2.732;2023-11-21T11:10:38;102371.11;;;12.56;36.40
69219;BME280;56232;53.384;-2.732;2023-11-21T11:13:04;102379.96;;;12.88;37.02
69219;BME280;56232;53.384;-2.732;2023-11-21T11:15:29;102389.11;;;13.10;38.35
69219;BME280;56232;53.384;-2.732;2023-11-21T11:17:55;102389.90;;;13.22;37.98
69219;BME280;56232;53.384;-2.732;2023-11-21T11:20:20;102392.75;;;13.01;37.79
69219;BME280;56232;53.384;-2.732;2023-11-21T11:22:55;102396.62;;;12.72;37.80
69219;BME280;56232;53.384;-2.732;2023-11-21T11:25:25;102391.01;;;13.57;37.60
69219;BME280;56232;53.384;-2.732;2023-11-21T11:27:46;102383.44;;;13.61;37.60
69219;BME280;56232;53.384;-2.732;2023-11-21T11:30:11;102377.73;;;13.14;36.97
69219;BME280;56232;53.384;-2.732;2023-11-21T11:32:36;102387.24;;;12.87;36.69
69219;BME280;56232;53.384;-2.732;2023-11-21T11:35:01;102391.83;;;13.22;37.66
69219;BME280;56232;53.384;-2.732;2023-11-21T11:37:20;102391.86;;;12.97;36.23
69219;BME280;56232;53.384;-2.732;2023-11-21T11:39:45;102398.10;;;12.79;37.68
69219;BME280;56232;53.384;-2.732;2023-11-21T11:42:13;102392.44;;;12.81;38.19
69219;BME280;56232;53.384;-2.732;2023-11-21T11:47:03;102377.69;;;12.65;39.09
69219;BME280;56232;53.384;-2.732;2023-11-21T11:49:28;102377.64;;;12.47;38.87
69219;BME280;56232;53.384;-2.732;2023-11-21T11:56:45;102388.79;;;13.65;38.23
69219;BME280;56232;53.384;-2.732;2023-11-21T11:59:10;102391.94;;;13.90;38.24
69219;BME280;56232;53.384;-2.732;2023-11-21T12:01:37;102392.93;;;13.66;37.72
69219;BME280;56232;53.384;-2.732;2023-11-21T12:06:33;102402.66;;;13.59;37.36
69219;BME280;56232;53.384;-2.732;2023-11-21T12:08:53;102412.22;;;13.95;37.21
69219;BME280;56232;53.384;-2.732;2023-11-21T12:11:18;102417.69;;;14.53;36.90
69219;BME280;56232;53.384;-2.732;2023-11-21T12:13:44;102415.11;;;14.43;36.75
69219;BME280;56232;53.384;-2.732;2023-11-21T12:16:10;102400.57;;;14.91;36.42
69219;BME280;56232;53.384;-2.732;2023-11-21T12:18:36;102395.75;;;14.84;36.47
69219;BME280;56232;53.384;-2.732;2023-11-21T12:21:01;102388.94;;;14.65;36.09
69219;BME280;56232;53.384;-2.732;2023-11-21T12:23:26;102401.64;;;14.40;36.99
69219;BME280;56232;53.384;-2.732;2023-11-21T12:25:52;102406.07;;;14.46;37.33
69219;BME280;56232;53.384;-2.732;2023-11-21T12:28:17;102404.91;;;14.34;37.53
69219;BME280;56232;53.384;-2.732;2023-11-21T12:30:43;102400.79;;;13.86;37.82
69219;BME280;56232;53.384;-2.732;2023-11-21T12:33:09;102399.56;;;14.87;37.14
69219;BME280;56232;53.384;-2.732;2023-11-21T12:35:35;102408.06;;;13.52;38.16
69219;BME280;56232;53.384;-2.732;2023-11-21T12:38:01;102411.00;;;14.15;37.61
69219;BME280;56232;53.384;-2.732;2023-11-21T12:40:26;102413.77;;;13.81;37.90
69219;BME280;56232;53.384;-2.732;2023-11-21T12:42:53;102408.94;;;14.14;37.95
69219;BME280;56232;53.384;-2.732;2023-11-21T12:45:21;102407.09;;;13.52;38.19